createdAt,value
2023-02-03T00:01:47.585Z,3.50
2023-02-03T00:03:49.418Z,3.70
2023-02-03T00:05:51.530Z,3.22
2023-02-03T00:07:53.809Z,4.15
2023-02-03T00:09:57.371Z,3.53
2023-02-03T00:11:59.239Z,3.67
2023-02-03T00:14:00.869Z,3.83
2023-02-03T00:16:02.535Z,3.63
2023-02-03T00:18:04.153Z,3.40
2023-02-03T00:20:06.515Z,3.67
2023-02-03T00:22:08.532Z,3.65
2023-02-03T00:24:10.172Z,3.58
2023-02-03T00:26:14.895Z,3.88
2023-02-03T00:28:18.023Z,4.07
2023-02-03T00:32:21.746Z,3.42
2023-02-03T00:34:23.496Z,3.35
2023-02-03T00:36:25.999Z,3.42
2023-02-03T00:38:28.174Z,2.80
2023-02-03T00:40:29.942Z,3.63
2023-02-03T00:42:31.469Z,3.50
2023-02-03T00:44:33.586Z,3.50
2023-02-03T00:46:36.400Z,3.67
2023-02-03T00:48:38.001Z,3.28
2023-02-03T00:50:39.984Z,3.20
2023-02-03T00:52:41.554Z,3.45
2023-02-03T00:54:43.199Z,3.90
2023-02-03T00:56:44.833Z,3.50
2023-02-03T00:58:47.128Z,4.20
2023-02-03T01:00:48.816Z,3.47
2023-02-03T01:02:50.468Z,3.30
2023-02-03T01:04:52.181Z,3.55
2023-02-03T01:06:57.779Z,3.70
2023-02-03T01:09:02.266Z,3.60
2023-02-03T01:11:09.870Z,4.05
2023-02-03T01:13:11.752Z,3.50
2023-02-03T01:15:13.259Z,3.28
2023-02-03T01:17:14.793Z,3.60
2023-02-03T01:19:16.852Z,3.22
2023-02-03T01:21:24.937Z,3.10
2023-02-03T01:23:27.471Z,3.13
2023-02-03T01:25:28.959Z,3.00
2023-02-03T01:27:32.641Z,3.17
2023-02-03T01:29:34.544Z,3.40
2023-02-03T01:31:39.794Z,2.95
2023-02-03T01:33:46.127Z,3.55
2023-02-03T01:35:47.732Z,3.42
2023-02-03T01:37:49.329Z,3.00
2023-02-03T01:39:50.876Z,3.20
2023-02-03T01:41:54.820Z,2.88
2023-02-03T01:43:58.978Z,3.00
2023-02-03T01:46:04.900Z,3.45
2023-02-03T01:48:08.316Z,2.90
2023-02-03T01:50:20.938Z,2.75
2023-02-03T01:52:23.378Z,2.58
2023-02-03T01:54:35.416Z,2.47
2023-02-03T01:56:42.319Z,3.10
2023-02-03T01:58:46.635Z,2.80
2023-02-03T02:00:49.704Z,2.55
2023-02-03T02:02:52.270Z,3.05
2023-02-03T02:05:01.855Z,2.55
2023-02-03T02:07:04.670Z,2.80
2023-02-03T02:09:06.389Z,2.30
2023-02-03T02:11:08.968Z,2.63
2023-02-03T02:13:12.851Z,2.60
2023-02-03T02:15:14.783Z,2.67
2023-02-03T02:17:53.659Z,2.38
2023-02-03T02:20:01.535Z,2.55
2023-02-03T02:22:17.033Z,2.08
2023-02-03T02:24:40.363Z,2.90
2023-02-03T02:26:56.948Z,2.47
2023-02-03T02:29:20.152Z,2.00
2023-02-03T02:31:43.691Z,2.38
2023-02-03T02:34:07.017Z,2.45
2023-02-03T02:36:49.312Z,3.03
2023-02-03T02:39:03.403Z,2.42
2023-02-03T02:41:16.294Z,2.40
2023-02-03T02:43:47.326Z,2.33
2023-02-03T02:45:56.245Z,2.40
2023-02-03T02:48:33.863Z,1.88
2023-02-03T02:50:42.151Z,1.98
2023-02-03T02:52:48.451Z,2.30
2023-02-03T02:54:54.728Z,2.22
2023-02-03T02:57:01.814Z,2.00
2023-02-03T02:59:07.132Z,1.90
2023-02-03T03:01:09.944Z,1.95
2023-02-03T03:03:18.623Z,1.85
2023-02-03T03:05:20.429Z,2.00
2023-02-03T03:07:27.913Z,2.10
2023-02-03T03:09:36.023Z,1.83
2023-02-03T03:11:43.942Z,1.85
2023-02-03T03:13:50.689Z,1.90
2023-02-03T03:15:55.651Z,1.73
2023-02-03T03:18:07.850Z,2.00
2023-02-03T03:20:15.129Z,2.75
2023-02-03T03:22:20.453Z,2.28
2023-02-03T03:24:27.939Z,2.50
2023-02-03T03:26:38.867Z,2.35
2023-02-03T03:28:57.090Z,2.40
2023-02-03T03:30:58.805Z,1.95
2023-02-03T03:33:01.358Z,2.10
2023-02-03T03:35:04.176Z,2.45
2023-02-03T03:37:12.195Z,2.25
2023-02-03T03:39:33.923Z,2.20
2023-02-03T03:41:50.191Z,2.05
2023-02-03T03:43:54.659Z,1.70
2023-02-03T03:46:05.268Z,2.17
2023-02-03T03:48:12.275Z,2.20
2023-02-03T03:50:21.498Z,1.70
2023-02-03T03:52:28.839Z,1.98
2023-02-03T03:54:32.388Z,2.28
2023-02-03T03:56:43.944Z,1.90
2023-02-03T03:58:48.317Z,1.92
2023-02-03T04:00:50.901Z,2.05
2023-02-03T04:02:56.830Z,1.90
2023-02-03T04:05:01.483Z,1.52
2023-02-03T04:07:03.462Z,1.90
2023-02-03T04:09:05.650Z,1.58
2023-02-03T04:11:08.403Z,2.08
2023-02-03T04:13:11.870Z,2.17
2023-02-03T04:15:13.475Z,1.55
2023-02-03T04:17:15.084Z,1.92
2023-02-03T04:19:17.079Z,1.98
2023-02-03T04:21:18.912Z,1.98
2023-02-03T04:23:20.461Z,2.05
2023-02-03T04:25:22.453Z,1.60
2023-02-03T04:27:27.552Z,2.20
2023-02-03T04:29:29.271Z,2.20
2023-02-03T04:31:30.910Z,2.05
2023-02-03T04:33:32.540Z,2.20
2023-02-03T04:35:34.454Z,1.77
2023-02-03T04:37:36.654Z,1.95
2023-02-03T04:39:38.272Z,2.30
2023-02-03T04:41:39.864Z,2.25
2023-02-03T04:43:41.611Z,1.95
2023-02-03T04:45:43.547Z,1.90
2023-02-03T04:47:45.250Z,1.80
2023-02-03T04:49:47.156Z,1.65
2023-02-03T04:51:49.766Z,2.03
2023-02-03T04:53:51.265Z,2.00
2023-02-03T04:55:52.882Z,2.03
2023-02-03T04:57:58.573Z,2.22
2023-02-03T05:00:00.176Z,2.63
2023-02-03T05:02:04.240Z,2.38
2023-02-03T05:04:06.210Z,1.98
2023-02-03T05:06:07.809Z,2.00
2023-02-03T05:08:09.699Z,1.83
2023-02-03T05:10:11.639Z,2.15
2023-02-03T05:12:13.144Z,2.20
2023-02-03T05:14:15.583Z,2.15
2023-02-03T05:16:17.439Z,1.88
2023-02-03T05:18:19.607Z,1.73
2023-02-03T05:20:22.192Z,2.00
2023-02-03T05:22:25.186Z,2.00
2023-02-03T05:24:26.955Z,1.92
2023-02-03T05:26:28.760Z,2.03
2023-02-03T05:28:30.380Z,1.95
2023-02-03T05:30:31.999Z,1.90
2023-02-03T05:32:33.607Z,1.80
2023-02-03T05:34:35.175Z,1.98
2023-02-03T05:36:36.700Z,1.98
2023-02-03T05:38:38.976Z,1.55
2023-02-03T05:40:59.346Z,2.10
2023-02-03T05:43:00.945Z,2.10
2023-02-03T05:45:02.878Z,2.05
2023-02-03T05:47:05.089Z,1.83
2023-02-03T05:49:06.990Z,2.35
2023-02-03T05:51:08.512Z,2.17
2023-02-03T05:53:11.224Z,1.90
2023-02-03T05:57:15.182Z,1.85
2023-02-03T05:59:16.938Z,2.05
2023-02-03T06:01:19.741Z,1.85
2023-02-03T06:03:21.398Z,1.85
2023-02-03T06:05:23.658Z,2.08
2023-02-03T06:07:25.230Z,2.15
2023-02-03T06:09:27.230Z,2.00
2023-02-03T06:11:29.611Z,2.13
2023-02-03T06:13:31.434Z,2.38
2023-02-03T06:15:32.976Z,2.10
2023-02-03T06:17:36.017Z,2.08
2023-02-03T06:19:37.815Z,2.05
2023-02-03T06:21:39.336Z,2.38
2023-02-03T06:23:40.812Z,2.00
2023-02-03T06:25:42.927Z,2.20
2023-02-03T06:27:44.476Z,2.10
2023-02-03T06:29:46.234Z,2.13
2023-02-03T06:31:48.334Z,2.13
2023-02-03T06:33:49.953Z,1.83
2023-02-03T06:35:51.557Z,1.60
2023-02-03T06:37:53.113Z,1.70
2023-02-03T06:39:54.618Z,1.50
2023-02-03T06:41:56.278Z,1.50
2023-02-03T06:43:58.034Z,1.80
2023-02-03T06:45:59.695Z,1.77
2023-02-03T06:48:01.297Z,1.60
2023-02-03T06:50:03.122Z,1.60
2023-02-03T06:52:04.676Z,2.03
2023-02-03T06:54:06.419Z,1.48
2023-02-03T06:56:08.175Z,1.40
2023-02-03T06:58:09.775Z,1.40
2023-02-03T07:00:15.515Z,2.03
2023-02-03T07:02:19.068Z,1.95
2023-02-03T07:06:28.932Z,1.38
2023-02-03T07:08:30.458Z,1.60
2023-02-03T07:10:32.766Z,1.70
2023-02-03T07:12:36.962Z,1.45
2023-02-03T07:14:39.369Z,1.70
2023-02-03T07:16:41.138Z,2.00
2023-02-03T07:18:47.235Z,1.75
2023-02-03T07:20:51.099Z,1.52
2023-02-03T07:24:54.922Z,1.48
2023-02-03T07:26:56.681Z,1.73
2023-02-03T07:29:00.712Z,1.92
2023-02-03T07:31:04.649Z,1.60
2023-02-03T07:33:07.861Z,1.65
2023-02-03T07:35:09.823Z,1.80
2023-02-03T07:37:11.407Z,1.92
2023-02-03T07:39:13.061Z,1.67
2023-02-03T07:41:16.441Z,1.80
2023-02-03T07:43:20.613Z,2.08
2023-02-03T07:45:24.625Z,1.83
2023-02-03T07:47:26.811Z,1.20
2023-02-03T07:49:28.579Z,1.77
2023-02-03T07:51:30.274Z,1.92
2023-02-03T07:53:32.925Z,1.55
2023-02-03T07:57:37.578Z,1.50
2023-02-03T07:59:39.528Z,1.85
2023-02-03T08:01:41.317Z,1.42
2023-02-03T08:03:43.429Z,2.00
2023-02-03T08:05:45.047Z,1.75
2023-02-03T08:07:46.843Z,1.88
2023-02-03T08:09:48.867Z,2.28
2023-02-03T08:11:50.453Z,1.70
2023-02-03T08:13:52.018Z,2.22
2023-02-03T08:15:54.002Z,1.95
2023-02-03T08:17:55.655Z,1.90
2023-02-03T08:19:57.270Z,1.67
2023-02-03T08:21:59.677Z,1.85
2023-02-03T08:24:01.251Z,1.42
2023-02-03T08:26:02.860Z,1.60
2023-02-03T08:28:04.884Z,1.58
2023-02-03T08:30:08.953Z,1.98
2023-02-03T08:32:12.285Z,1.35
2023-02-03T08:34:14.121Z,1.38
2023-02-03T08:36:15.854Z,1.50
2023-02-03T08:38:18.025Z,1.20
2023-02-03T08:40:19.926Z,1.30
2023-02-03T08:42:21.865Z,1.20
2023-02-03T08:44:23.656Z,1.20
2023-02-03T08:46:25.309Z,1.35
2023-02-03T08:48:26.811Z,1.38
2023-02-03T08:50:28.855Z,1.70
2023-02-03T08:52:30.931Z,1.50
2023-02-03T08:54:33.523Z,1.10
2023-02-03T08:56:35.324Z,1.17
2023-02-03T08:58:37.523Z,1.02
2023-02-03T09:00:39.115Z,1.40
2023-02-03T09:02:40.666Z,1.50
2023-02-03T09:04:42.632Z,1.40
2023-02-03T09:06:44.203Z,1.38
2023-02-03T09:08:46.781Z,1.30
2023-02-03T09:10:48.427Z,1.67
2023-02-03T09:12:49.959Z,1.05
2023-02-03T09:14:51.717Z,2.38
2023-02-03T09:16:54.192Z,1.27
2023-02-03T09:18:55.769Z,1.40
2023-02-03T09:21:01.978Z,1.27
2023-02-03T09:23:03.833Z,1.30
2023-02-03T09:25:07.005Z,1.30
2023-02-03T09:27:08.892Z,1.17
2023-02-03T09:29:10.861Z,1.10
2023-02-03T09:31:14.784Z,1.13
2023-02-03T09:33:16.430Z,1.20
2023-02-03T09:35:19.459Z,1.27
2023-02-03T09:37:21.101Z,0.95
2023-02-03T09:39:22.803Z,1.23
2023-02-03T09:41:44.176Z,1.23
2023-02-03T09:44:03.589Z,1.08
2023-02-03T09:46:15.366Z,1.27
2023-02-03T09:48:29.081Z,1.00
2023-02-03T09:50:35.539Z,0.95
2023-02-03T09:52:40.344Z,0.80
2023-02-03T09:54:52.958Z,0.95
2023-02-03T09:56:56.038Z,1.00
2023-02-03T09:58:57.669Z,1.20
2023-02-03T10:01:02.253Z,1.08
2023-02-03T10:03:45.729Z,1.23
2023-02-03T10:06:07.261Z,0.80
2023-02-03T10:08:31.120Z,1.00
2023-02-03T10:10:42.011Z,0.90
2023-02-03T10:13:10.788Z,0.80
2023-02-03T10:15:38.406Z,1.10
2023-02-03T10:17:46.633Z,0.52
2023-02-03T10:19:55.426Z,0.80
2023-02-03T10:22:00.131Z,0.95
2023-02-03T10:24:03.859Z,0.80
2023-02-03T10:26:09.350Z,1.00
2023-02-03T10:28:18.476Z,0.77
2023-02-03T10:30:26.679Z,0.90
2023-02-03T10:34:30.510Z,0.90
2023-02-03T10:36:52.964Z,0.70
2023-02-03T10:39:10.267Z,0.80
2023-02-03T10:41:12.140Z,0.77
2023-02-03T10:43:32.961Z,0.98
2023-02-03T10:47:49.494Z,0.55
2023-02-03T10:49:52.500Z,0.73
2023-02-03T10:51:58.057Z,0.90
2023-02-03T10:54:00.586Z,1.08
2023-02-03T10:56:09.197Z,0.90
2023-02-03T10:58:19.099Z,0.68
2023-02-03T11:00:32.360Z,0.90
2023-02-03T11:02:34.416Z,1.08
2023-02-03T11:04:38.536Z,1.08
2023-02-03T11:06:55.937Z,0.70
2023-02-03T11:08:58.025Z,0.68
2023-02-03T11:11:06.367Z,0.88
2023-02-03T11:13:10.855Z,1.02
2023-02-03T11:15:14.884Z,0.98
2023-02-03T11:17:27.030Z,0.90
2023-02-03T11:19:28.687Z,0.80
2023-02-03T11:21:33.871Z,0.80
2023-02-03T11:23:35.732Z,0.98
2023-02-03T11:25:38.016Z,0.88
2023-02-03T11:27:40.115Z,0.75
2023-02-03T11:29:45.547Z,1.10
2023-02-03T11:31:50.736Z,0.75
2023-02-03T11:33:56.678Z,0.80
2023-02-03T11:36:00.277Z,0.80
2023-02-03T11:38:02.140Z,0.52
2023-02-03T11:40:12.563Z,0.98
2023-02-03T11:42:23.152Z,0.90
2023-02-03T11:44:29.461Z,1.25
2023-02-03T11:46:32.831Z,0.88
2023-02-03T11:48:43.598Z,1.05
2023-02-03T11:50:52.160Z,0.82
2023-02-03T11:53:24.147Z,0.75
2023-02-03T11:55:41.145Z,0.70
2023-02-03T11:58:07.971Z,0.68
2023-02-03T12:02:33.274Z,0.90
2023-02-03T12:05:02.461Z,0.75
2023-02-03T12:07:11.215Z,1.92
2023-02-03T12:11:45.756Z,0.93
2023-02-03T12:14:06.985Z,1.05
2023-02-03T12:16:27.640Z,1.58
2023-02-03T12:18:41.141Z,0.93
2023-02-03T12:21:01.842Z,0.80
2023-02-03T12:23:23.920Z,0.57
2023-02-03T12:25:38.963Z,1.05
2023-02-03T12:27:51.397Z,0.73
2023-02-03T12:30:09.359Z,0.90
2023-02-03T12:32:47.762Z,0.80
2023-02-03T12:34:59.849Z,1.60
2023-02-03T12:37:24.943Z,0.85
2023-02-03T12:39:33.765Z,0.98
2023-02-03T12:41:40.261Z,0.90
2023-02-03T12:43:52.506Z,0.90
2023-02-03T12:46:23.676Z,0.73
2023-02-03T12:48:32.751Z,1.00
2023-02-03T12:50:42.117Z,0.88
2023-02-03T12:52:51.398Z,0.60
2023-02-03T12:55:18.052Z,0.90
2023-02-03T12:57:30.632Z,0.82
2023-02-03T12:59:33.797Z,0.57
2023-02-03T13:01:42.007Z,0.60
2023-02-03T13:04:16.188Z,0.70
2023-02-03T13:06:47.104Z,0.80
2023-02-03T13:09:02.479Z,0.90
2023-02-03T13:11:24.289Z,0.70
2023-02-03T13:13:39.900Z,1.00
2023-02-03T13:15:46.925Z,0.70
2023-02-03T13:17:56.177Z,0.70
2023-02-03T13:20:02.276Z,1.00
2023-02-03T13:22:11.412Z,0.82
2023-02-03T13:24:13.195Z,1.05
2023-02-03T13:26:25.379Z,0.80
2023-02-03T13:28:46.561Z,0.80
2023-02-03T13:31:13.172Z,0.88
2023-02-03T13:33:37.819Z,0.80
2023-02-03T13:35:59.558Z,0.90
2023-02-03T13:38:17.749Z,1.10
2023-02-03T13:40:19.235Z,0.98
2023-02-03T13:42:30.442Z,0.90
2023-02-03T13:44:32.421Z,0.80
2023-02-03T13:46:36.068Z,0.80
2023-02-03T13:48:37.860Z,0.82
2023-02-03T13:50:40.782Z,0.80
2023-02-03T13:52:47.300Z,0.70
2023-02-03T13:54:49.747Z,0.80
2023-02-03T13:57:02.074Z,0.70
2023-02-03T13:59:31.886Z,0.70
2023-02-03T14:01:38.807Z,0.90
2023-02-03T14:03:42.150Z,1.00
2023-02-03T14:05:50.503Z,0.98
2023-02-03T14:07:52.199Z,1.10
2023-02-03T14:10:12.114Z,1.20
2023-02-03T14:12:30.582Z,1.23
2023-02-03T14:14:35.461Z,1.10
2023-02-03T14:16:42.005Z,1.10
2023-02-03T14:18:45.922Z,0.90
2023-02-03T14:20:51.369Z,0.80
2023-02-03T14:22:57.638Z,1.00
2023-02-03T14:25:06.975Z,0.88
2023-02-03T14:27:22.922Z,0.68
2023-02-03T14:29:27.840Z,0.95
2023-02-03T14:31:29.956Z,1.10
2023-02-03T14:33:50.360Z,0.90
2023-02-03T14:35:52.556Z,0.93
2023-02-03T14:38:06.274Z,0.80
2023-02-03T14:40:17.011Z,0.80
2023-02-03T14:42:40.820Z,1.17
2023-02-03T14:44:54.677Z,1.10
2023-02-03T14:47:08.819Z,1.10
2023-02-03T14:49:26.025Z,0.90
2023-02-03T14:51:56.552Z,1.33
2023-02-03T14:54:16.689Z,1.08
2023-02-03T14:56:58.231Z,1.40
2023-02-03T14:59:04.445Z,1.27
2023-02-03T15:01:08.228Z,1.20
2023-02-03T15:03:10.403Z,1.35
2023-02-03T15:05:11.948Z,1.40
2023-02-03T15:07:39.233Z,1.42
2023-02-03T15:09:48.566Z,2.65
2023-02-03T15:11:50.309Z,0.80
2023-02-03T15:13:51.848Z,1.00
2023-02-03T15:16:04.471Z,1.20
2023-02-03T15:18:28.453Z,1.65
2023-02-03T15:20:40.419Z,1.20
2023-02-03T15:22:42.178Z,1.30
2023-02-03T15:24:43.898Z,1.17
2023-02-03T15:26:48.069Z,1.27
2023-02-03T15:29:01.033Z,1.15
2023-02-03T15:31:25.123Z,1.13
2023-02-03T15:33:29.013Z,1.40
2023-02-03T15:35:33.229Z,1.33
2023-02-03T15:37:45.045Z,1.30
2023-02-03T15:40:00.291Z,1.23
2023-02-03T15:42:05.568Z,1.50
2023-02-03T15:44:35.177Z,1.30
2023-02-03T15:46:48.941Z,1.65
2023-02-03T15:48:57.218Z,1.70
2023-02-03T15:51:06.352Z,1.80
2023-02-03T15:53:19.303Z,2.00
2023-02-03T15:55:41.943Z,1.80
2023-02-03T15:57:47.859Z,1.98
2023-02-03T16:00:00.589Z,2.65
2023-02-03T16:02:21.329Z,2.00
2023-02-03T16:04:25.532Z,2.25
2023-02-03T16:06:44.916Z,2.67
2023-02-03T16:08:48.036Z,2.95
2023-02-03T16:10:49.560Z,3.63
2023-02-03T16:12:51.194Z,3.30
2023-02-03T16:14:55.012Z,3.03
2023-02-03T16:17:04.960Z,2.75
2023-02-03T16:19:17.049Z,2.60
2023-02-03T16:21:29.923Z,2.83
2023-02-03T16:23:31.582Z,3.72
2023-02-03T16:25:35.017Z,3.50
2023-02-03T16:27:37.112Z,3.83
2023-02-03T16:29:57.468Z,4.68
2023-02-03T16:32:18.573Z,4.28
2023-02-03T16:34:38.833Z,4.15
2023-02-03T16:37:00.941Z,6.13
2023-02-03T16:39:25.582Z,3.90
2023-02-03T16:41:45.977Z,3.55
2023-02-03T16:44:06.233Z,3.53
2023-02-03T16:46:30.405Z,4.10
2023-02-03T16:48:50.748Z,3.20
2023-02-03T16:50:58.923Z,3.30
2023-02-03T16:53:00.923Z,2.72
2023-02-03T16:55:02.567Z,2.30
2023-02-03T16:57:04.559Z,3.33
2023-02-03T16:59:06.498Z,3.13
2023-02-03T17:01:09.493Z,3.05
2023-02-03T17:03:14.290Z,2.97
2023-02-03T17:05:16.453Z,3.17
2023-02-03T17:07:17.983Z,3.65
2023-02-03T17:09:24.823Z,3.10
2023-02-03T17:11:27.065Z,3.90
2023-02-03T17:13:28.704Z,3.92
2023-02-03T17:15:30.853Z,3.58
2023-02-03T17:17:33.233Z,3.90
2023-02-03T17:19:35.427Z,3.80
2023-02-03T17:21:39.132Z,3.97
2023-02-03T17:23:41.079Z,3.88
2023-02-03T17:25:46.999Z,4.10
2023-02-03T17:27:48.788Z,3.90
2023-02-03T17:29:50.914Z,4.60
2023-02-03T17:31:53.683Z,4.47
2023-02-03T17:33:56.453Z,4.35
2023-02-03T17:36:01.911Z,3.80
2023-02-03T17:38:03.608Z,9.27
2023-02-03T17:54:06.414Z,4.93
2023-02-03T17:56:13.654Z,3.90
2023-02-03T17:58:15.247Z,4.10
2023-02-03T18:00:20.470Z,3.30
2023-02-03T18:02:22.631Z,2.30
2023-02-03T18:04:24.184Z,2.45
2023-02-03T18:06:27.229Z,2.47
2023-02-03T18:08:29.304Z,3.03
2023-02-03T18:10:31.088Z,2.78
2023-02-03T18:12:32.932Z,2.50
2023-02-03T18:14:34.503Z,2.83
2023-02-03T18:16:36.711Z,3.08
2023-02-03T18:18:39.920Z,3.85
2023-02-03T18:20:42.320Z,3.35
2023-02-03T18:22:45.268Z,4.05
2023-02-03T18:24:51.748Z,4.07
2023-02-03T18:26:56.326Z,4.10
2023-02-03T18:28:58.420Z,4.07
2023-02-03T18:31:15.031Z,3.80
2023-02-03T18:33:17.882Z,5.88
2023-02-03T18:35:19.544Z,3.95
2023-02-03T18:37:21.250Z,4.78
2023-02-03T18:39:22.966Z,3.83
2023-02-03T18:41:26.313Z,4.50
2023-02-03T18:43:28.232Z,3.78
2023-02-03T18:45:30.029Z,3.50
2023-02-03T18:47:32.597Z,3.30
2023-02-03T18:49:37.816Z,3.45
2023-02-03T18:51:39.732Z,3.97
2023-02-03T18:53:41.809Z,3.55
2023-02-03T18:55:44.538Z,3.50
2023-02-03T18:57:46.821Z,2.72
2023-02-03T18:59:49.477Z,2.70
2023-02-03T19:03:54.402Z,2.70
2023-02-03T19:05:56.043Z,2.35
2023-02-03T19:07:57.627Z,2.58
2023-02-03T19:09:59.276Z,2.75
2023-02-03T19:12:00.821Z,2.03
2023-02-03T19:14:03.125Z,2.05
2023-02-03T19:16:04.989Z,1.48
2023-02-03T19:18:06.672Z,1.50
2023-02-03T19:20:08.875Z,1.40
2023-02-03T19:24:16.187Z,1.30
2023-02-03T19:26:19.317Z,1.63
2023-02-03T19:28:30.444Z,1.30
2023-02-03T19:30:33.359Z,1.52
2023-02-03T19:32:38.445Z,1.40
2023-02-03T19:34:42.015Z,1.80
2023-02-03T19:36:47.196Z,1.38
2023-02-03T19:38:50.499Z,2.45
2023-02-03T19:40:54.320Z,1.30
2023-02-03T19:42:57.464Z,1.60
2023-02-03T19:45:00.564Z,2.03
2023-02-03T19:47:03.936Z,1.95
2023-02-03T19:49:11.157Z,1.60
2023-02-03T19:51:14.224Z,1.42
2023-02-03T19:53:18.898Z,1.50
2023-02-03T19:55:23.502Z,1.58
2023-02-03T19:57:27.452Z,1.58
2023-02-03T19:59:30.878Z,2.05
2023-02-03T20:01:33.595Z,1.80
2023-02-03T20:03:36.513Z,2.10
2023-02-03T20:05:38.947Z,2.35
2023-02-03T20:07:41.311Z,1.75
2023-02-03T20:09:46.461Z,1.95
2023-02-03T20:11:48.747Z,1.85
2023-02-03T20:13:52.824Z,2.13
2023-02-03T20:15:55.752Z,1.75
2023-02-03T20:19:59.952Z,2.45
2023-02-03T20:22:01.763Z,2.17
2023-02-03T20:24:04.011Z,2.47
2023-02-03T20:26:05.894Z,1.80
2023-02-03T20:28:07.683Z,2.22
2023-02-03T20:30:10.087Z,3.25
2023-02-03T20:32:11.973Z,1.95
2023-02-03T20:34:14.078Z,2.67
2023-02-03T20:36:15.631Z,2.10
2023-02-03T20:38:17.456Z,2.58
2023-02-03T20:40:22.965Z,2.63
2023-02-03T20:42:26.988Z,2.35
2023-02-03T20:44:29.051Z,2.28
2023-02-03T20:46:31.148Z,2.05
2023-02-03T20:48:32.959Z,2.03
2023-02-03T20:50:42.180Z,2.22
2023-02-03T20:52:45.772Z,2.38
2023-02-03T20:54:48.406Z,2.25
2023-02-03T20:58:52.259Z,2.35
2023-02-03T21:00:57.346Z,2.50
2023-02-03T21:03:22.744Z,2.83
2023-02-03T21:05:33.919Z,2.30
2023-02-03T21:07:43.068Z,2.47
2023-02-03T21:10:37.827Z,2.97
2023-02-03T21:12:39.735Z,2.67
2023-02-03T21:14:45.122Z,2.05
2023-02-03T21:16:47.968Z,2.53
2023-02-03T21:18:55.426Z,2.30
2023-02-03T21:20:57.349Z,2.25
2023-02-03T21:22:59.687Z,2.42
2023-02-03T21:25:03.614Z,2.72
2023-02-03T21:27:23.034Z,3.22
2023-02-03T21:29:31.975Z,3.15
2023-02-03T21:31:37.985Z,2.60
2023-02-03T21:33:42.749Z,2.65
2023-02-03T21:35:45.225Z,2.72
2023-02-03T21:39:55.509Z,2.10
2023-02-03T21:42:00.767Z,2.63
2023-02-03T21:44:10.065Z,3.10
2023-02-03T21:46:27.755Z,2.47
2023-02-03T21:48:36.894Z,2.00
2023-02-03T21:50:41.461Z,2.15
2023-02-03T21:52:43.858Z,2.75
2023-02-03T21:54:46.356Z,2.15
2023-02-03T21:56:50.883Z,2.20
2023-02-03T21:58:57.393Z,1.88
2023-02-03T22:01:06.402Z,1.92
2023-02-03T22:03:19.507Z,1.88
2023-02-03T22:05:21.483Z,2.80
2023-02-03T22:07:25.493Z,2.20
2023-02-03T22:09:27.798Z,2.30
2023-02-03T22:11:30.188Z,2.35
2023-02-03T22:13:32.980Z,2.28
2023-02-03T22:15:37.600Z,1.95
2023-02-03T22:17:39.760Z,1.77
2023-02-03T22:19:41.535Z,2.47
2023-02-03T22:21:43.822Z,2.00
2023-02-03T22:23:47.591Z,2.00
2023-02-03T22:25:51.538Z,2.38
2023-02-03T22:27:55.502Z,1.80
2023-02-03T22:30:00.095Z,2.47
2023-02-03T22:32:04.672Z,2.08
2023-02-03T22:34:10.065Z,2.45
2023-02-03T22:36:15.531Z,1.80
2023-02-03T22:38:20.692Z,2.40
2023-02-03T22:40:24.993Z,2.80
2023-02-03T22:42:30.243Z,1.90
2023-02-03T22:44:35.122Z,2.05
2023-02-03T22:46:40.227Z,1.90
2023-02-03T22:48:45.559Z,1.85
2023-02-03T22:50:50.155Z,2.17
2023-02-03T22:52:55.988Z,1.98
2023-02-03T22:55:00.279Z,2.55
2023-02-03T22:57:04.671Z,2.10
2023-02-03T22:59:11.083Z,2.15
2023-02-03T23:01:14.723Z,2.72
2023-02-03T23:03:20.415Z,2.88
2023-02-03T23:05:25.122Z,3.55
2023-02-03T23:07:30.905Z,2.38
2023-02-03T23:09:35.159Z,2.28
2023-02-03T23:11:39.347Z,3.25
2023-02-03T23:13:43.555Z,2.63
2023-02-03T23:15:48.495Z,2.00
2023-02-03T23:17:53.928Z,2.67
2023-02-03T23:19:59.417Z,2.40
2023-02-03T23:22:03.563Z,2.00
2023-02-03T23:24:08.426Z,2.83
2023-02-03T23:26:16.998Z,2.60
2023-02-03T23:28:23.032Z,2.65
2023-02-03T23:30:27.196Z,2.95
2023-02-03T23:32:34.533Z,2.20
2023-02-03T23:34:58.755Z,2.55
2023-02-03T23:37:06.616Z,2.38
2023-02-03T23:39:11.538Z,2.13
2023-02-03T23:41:16.772Z,2.97
2023-02-03T23:43:21.781Z,2.75
2023-02-03T23:45:27.468Z,2.55
2023-02-03T23:47:32.303Z,2.63
2023-02-03T23:49:37.585Z,2.72
2023-02-03T23:51:42.231Z,2.42
2023-02-03T23:53:47.640Z,2.80
2023-02-03T23:55:57.774Z,2.58
2023-02-03T23:58:02.055Z,2.85
